x

8454000 - Providence, Ri (foxr1) Weather Station

11:30 - Sat 20th Dec 2014 All times are EST. -5 hours from GMT.

  • Wind
    3mph, 6mph gusts
  • Sea Temp 42°f
  • Luft Temp 35°f
  • Sea Pressure 1023.6mb
  • 8454000 - Providence, Ri
  • 8454000 - Providence, Ri

More Historic Weather Station data

Upgrade to MSW Pro to gain access to the past 30 days of data for over 8000 Wavebouys and Weather Stations around the globe.

Join Pro

Comparision Forecast

View Surf forecast
   
Sa 12/20 11:30 3 6 mph 1023.6mb 42f 35f
11:24 6 7 mph 1023.7mb 42f 34f
11:18 6 8 mph - - -
11:12 7 9 mph 1023.7mb 42f 34f
11:06 6 8 mph 1023.8mb 42f 34f
11:00 6 8 mph 1023.9mb 42f 34f
10:54 5 9 mph 1024.1mb 42f 34f
10:48 3 8 mph 1024.1mb 42f 34f
10:42 7 10 mph 1024.1mb 42f 33f
10:36 3 7 mph 1024.2mb 42f 34f
10:30 7 10 mph 1024.2mb 42f 33f
10:24 6 10 mph 1024.3mb 42f 33f
10:18 6 10 mph 1024.4mb 42f 33f
10:12 3 8 mph 1024.4mb 42f 33f
10:06 3 8 mph 1024.5mb 42f 33f
10:00 7 11 mph 1024.5mb 43f 33f
9:48 6 10 mph 1024.5mb 43f 32f
9:42 6 10 mph 1024.4mb 43f 32f
9:36 5 10 mph 1024.5mb 43f 32f
9:30 6 11 mph 1024.4mb 43f 32f
9:24 6 13 mph 1024.4mb 43f 32f
9:18 6 10 mph - - -
9:12 6 11 mph 1024.4mb 44f 31f
9:06 6 10 mph 1024.5mb 44f 31f
9:00 6 11 mph 1024.6mb 44f 31f
8:54 7 11 mph 1024.5mb 44f 31f
8:48 6 11 mph 1024.5mb 44f 31f
8:42 7 11 mph 1024.5mb 44f 31f
8:36 8 13 mph 1024.5mb 44f 31f
8:30 5 8 mph 1024.5mb 44f 31f
8:24 3 8 mph 1024.4mb 44f 31f
8:18 3 8 mph 1024.4mb 44f 31f
8:12 6 9 mph 1024.3mb 44f 30f
8:06 7 9 mph 1024.2mb 44f 30f
8:00 6 8 mph 1024.2mb 44f 30f
7:54 6 10 mph 1024.1mb 44f 30f
7:48 7 9 mph - - -
7:42 6 9 mph 1024mb 44f 30f
7:36 7 10 mph 1023.9mb 44f 30f
7:30 8 13 mph 1023.9mb 44f 30f
7:24 7 11 mph 1023.7mb 45f 30f
7:18 6 10 mph 1023.7mb 45f 30f
7:12 6 10 mph 1023.6mb 45f 30f
7:06 9 13 mph 1023.5mb 45f 30f
7:00 6 11 mph 1023.5mb 45f 30f
6:54 8 14 mph 1023.4mb 45f 30f
6:48 7 11 mph - - -
6:42 8 11 mph 1023.2mb 45f 30f
6:36 6 11 mph 1023.2mb 45f 30f
6:30 8 11 mph 1023.1mb 45f 30f
6:24 7 9 mph 1023mb 45f 30f
6:18 6 10 mph 1023mb 45f 30f
6:12 6 10 mph 1022.8mb 45f 30f
6:06 5 9 mph 1022.8mb 45f 30f
6:00 6 10 mph 1022.7mb 45f 30f
5:54 7 10 mph 1022.6mb 45f 30f
5:48 6 10 mph 1022.5mb 45f 30f
5:42 6 9 mph 1022.4mb 45f 30f
5:36 2 9 mph 1022.3mb 45f 30f
5:30 5 10 mph 1022.1mb 45f 30f
5:24 6 13 mph 1022mb 45f 30f
5:18 5 10 mph 1022mb 45f 30f
5:12 6 9 mph 1022mb 45f 30f
5:06 6 9 mph 1022mb 45f 30f
5:00 5 9 mph 1021.9mb 45f 30f
4:54 5 8 mph 1021.9mb 45f 30f
4:48 3 11 mph 1021.7mb 45f 30f
4:42 6 9 mph 1021.6mb 45f 30f
4:36 6 9 mph 1021.5mb 45f 30f
4:30 3 7 mph 1021.5mb 45f 30f
4:24 3 9 mph 1021.5mb 45f 30f
4:18 6 9 mph 1021.4mb 45f 30f
4:12 6 11 mph 1021.4mb 45f 30f
4:06 3 8 mph 1021.4mb 45f 30f
4:00 6 10 mph 1021.3mb 44f 30f
3:54 5 7 mph 1021.3mb 44f 30f
3:48 3 9 mph 1021.3mb 44f 30f
3:42 6 8 mph 1021.3mb 44f 30f
3:36 7 11 mph 1021.2mb 44f 29f
3:30 6 10 mph 1021.2mb 44f 29f
3:24 7 11 mph 1021.1mb 44f 29f
3:18 6 9 mph 1021.1mb 44f 29f
3:12 8 11 mph 1021.1mb 44f 29f
3:06 9 11 mph 1021.2mb 44f 29f
3:00 9 10 mph 1021.2mb 44f 29f
2:54 8 10 mph 1021.2mb 44f 29f
2:48 8 11 mph 1021.3mb 44f 29f
2:42 8 11 mph 1021.2mb 44f 29f
2:36 7 10 mph 1021.2mb 44f 29f
2:30 6 9 mph 1021.3mb 44f 29f
2:24 6 7 mph 1021.3mb 44f 29f
2:18 6 8 mph 1021.2mb 44f 29f
2:12 8 10 mph 1021.2mb 44f 29f
2:06 6 10 mph 1021.1mb 43f 29f
2:00 8 13 mph 1020.9mb 43f 29f
1:54 6 9 mph 1020.9mb 43f 30f
1:48 6 9 mph 1020.9mb 43f 30f
1:42 8 10 mph 1021mb 43f 30f
1:36 3 8 mph 1021mb 43f 30f
1:30 6 9 mph 1020.9mb 43f 30f
1:24 6 8 mph 1020.8mb 43f 30f
1:18 5 7 mph 1020.7mb 43f 30f
1:12 6 9 mph 1020.7mb 43f 30f
1:06 3 7 mph 1020.7mb 43f 30f
1:00 6 7 mph 1020.6mb 43f 30f
12:54 6 8 mph 1020.5mb 43f 30f
12:48 3 6 mph 1020.5mb 42f 30f
12:42 5 7 mph 1020.4mb 42f 30f
12:36 3 6 mph 1020.4mb 42f 30f
12:30 3 6 mph 1020.3mb 42f 30f
12:24 3 6 mph 1020.2mb 42f 30f
12:18 5 8 mph 1020.1mb 42f 31f
12:12 5 6 mph 1020mb 42f 31f
12:06 3 7 mph 1020mb 42f 31f
12:00 3 6 mph 1020mb 42f 31f
Fr 12/19 11:54 5 7 mph 1020mb 42f 31f
11:48 5 7 mph 1019.9mb 42f 31f
11:42 6 7 mph 1019.9mb 42f 31f
11:36 5 6 mph 1019.8mb 42f 31f
11:30 3 8 mph 1019.8mb 42f 31f
11:24 3 7 mph 1019.7mb 42f 32f
11:18 5 7 mph 1019.8mb 42f 32f
11:12 5
mph
1019.8mb 42f 31f
11:06 5 6 mph 1019.7mb 42f 32f
11:00 6 7 mph 1019.6mb 42f 32f
10:54 6 9 mph 1019.5mb 42f 32f
10:48 6 9 mph 1019.4mb 42f 32f
10:42 6 9 mph 1019.3mb 42f 32f
10:36 6 10 mph 1019.3mb 42f 32f
10:30 7 10 mph 1019.3mb 42f 33f
10:24 5 9 mph 1019.3mb 42f 33f
10:18 6 8 mph 1019.2mb 42f 33f
10:12 8 9 mph 1019.2mb 42f 33f
10:06 6 9 mph 1019.2mb 43f 33f
10:00 6 8 mph 1019.2mb 43f 33f
9:54 5 6 mph 1019.2mb 43f 33f
9:48 6 8 mph 1019.1mb 43f 33f
9:42 7 9 mph 1019.1mb 43f 33f
9:36 6 9 mph 1019.1mb 43f 33f
9:30 7 8 mph 1019.1mb 43f 33f
9:24 6 9 mph 1019mb 43f 33f
9:18 6 8 mph 1019mb 43f 33f
9:12 7 8 mph 1019mb 43f 33f
9:06 6 9 mph 1018.9mb 43f 33f
8:54 7 11 mph 1018.8mb 43f 33f
8:48 5 8 mph - - -
8:42 7 11 mph 1018.7mb 43f 34f
8:36 5 9 mph 1018.7mb 43f 34f
8:30 6 10 mph 1018.5mb 44f 34f
8:24 3 9 mph 1018.5mb 44f 34f
8:18 7 10 mph 1018.4mb 44f 34f
8:06 6 11 mph 1018.3mb 44f 34f
7:54 9 15 mph 1018mb 44f 34f
7:48 10 13 mph 1018mb 44f 34f
7:42 6 11 mph 1017.9mb 44f 34f
7:36 6 8 mph 1017.9mb 44f 34f
7:30 6 10 mph 1017.9mb 44f 34f
7:24 6 8 mph 1017.8mb 44f 35f
7:18 5 8 mph 1017.8mb 44f 35f
7:12 6 9 mph 1017.7mb 44f 35f
7:06 6 9 mph 1017.7mb 44f 35f
7:00 6 9 mph 1017.7mb 44f 35f
6:54 7 10 mph 1017.6mb 44f 35f
6:48 7 10 mph 1017.5mb - -
6:42 7 13 mph 1017.4mb 45f 35f
6:36 8 13 mph 1017.3mb 45f 35f
6:30 7 13 mph 1017.2mb 45f 35f
6:24 9 13 mph 1017.1mb 45f 35f
6:18 10 13 mph 1017mb - -
6:12 8 11 mph 1016.8mb 45f 35f
6:06 8 14 mph 1016.8mb 45f 35f
6:00 10 15 mph 1016.6mb 45f 35f
5:54 7 13 mph 1016.5mb 45f 35f
5:48 9 14 mph 1016.5mb 45f 35f
5:42 6 13 mph 1016.5mb 45f 35f
5:36 7 10 mph 1016.4mb 45f 35f
5:30 9 14 mph 1016.3mb 45f 35f
5:24 9 13 mph 1016.3mb 45f 35f
5:18 9 14 mph 1016.2mb 45f 35f
5:12 9 11 mph 1016.1mb 45f 35f
5:06 8 11 mph 1016.1mb 45f 35f
5:00 9 13 mph 1016mb 45f 35f
4:54 9 14 mph 1015.9mb 45f 35f
4:48 9 13 mph 1015.9mb 45f 35f
4:42 7 11 mph 1015.8mb 45f 35f
4:36 8 15 mph 1015.7mb 45f 35f
4:30 10 15 mph 1015.6mb 45f 35f
4:24 9 17 mph 1015.7mb 45f 35f
4:18 8 13 mph 1015.6mb 45f 35f
4:12 11 15 mph 1015.5mb 45f 35f
4:06 11 14 mph 1015.4mb 45f 35f
4:00 7 14 mph 1015.4mb 45f 35f
3:54 11 17 mph 1015.3mb 45f 35f
3:48 9 15 mph 1015.2mb 45f 35f
3:42 11 18 mph 1015.1mb 44f 35f
3:36 13 21 mph 1015.1mb 44f 35f
3:30 14 16 mph 1015mb 44f 35f
3:24 15 20 mph 1014.9mb 44f 35f
3:18 11 16 mph 1014.8mb 44f 35f
3:12 10 17 mph 1014.6mb 43f 35f
3:06 11 17 mph 1014.6mb 43f 35f
3:00 13 18 mph 1014.5mb 43f 35f
2:54 8 16 mph 1014.5mb 43f 35f
2:48 13 15 mph 1014.4mb 43f 35f
2:42 13 17 mph 1014.4mb 43f 35f
2:36 11 17 mph 1014.2mb 43f 35f
2:24 13 17 mph 1014mb 42f 35f
2:18 10 17 mph 1014mb 42f 36f
2:12 10 15 mph 1014mb 42f 36f
2:06 9 14 mph 1013.9mb 42f 36f
2:00 11 16 mph 1013.8mb 42f 36f
1:54 9 18 mph 1013.8mb 42f 36f
1:48 9 15 mph 1013.6mb 42f 36f
1:42 10 21 mph 1013.5mb 42f 36f
1:36 13 18 mph 1013.5mb 42f 36f
1:30 13 17 mph 1013.4mb 42f 36f
1:24 9 14 mph 1013.4mb 42f 36f
1:18 8 16 mph 1013.3mb 42f 36f
1:12 8 11 mph 1013.2mb 42f 37f
1:06 7 14 mph 1013.2mb 42f 37f
1:00 10 16 mph 1013.2mb 42f 37f
12:54 11 14 mph 1013.2mb 42f 37f
12:48 7 14 mph 1013.3mb 42f 37f
12:42 9 15 mph 1013.3mb 42f 37f
12:36 11 16 mph 1013.2mb 42f 36f
12:30 8 14 mph 1013.3mb 42f 37f
12:24 10 16 mph 1013.3mb 42f 37f
12:18 11 16 mph 1013.3mb 42f 37f
12:12 10 15 mph 1013.3mb 42f 37f
12:06 9 14 mph 1013.4mb 42f 37f
12:00 10 16 mph 1013.4mb 42f 37f
11:54 7 14 mph 1013.4mb 42f 37f
11:48 10 17 mph 1013.4mb 42f 37f
11:42 10 14 mph 1013.4mb 42f 37f
11:36 9 13 mph 1013.4mb 42f 37f
11:30 8 13 mph 1013.4mb 42f 37f
11:24 9 14 mph 1013.5mb 42f 37f
11:18 9 14 mph 1013.5mb 42f 37f
11:12 8 13 mph 1013.5mb 42f 37f
11:06 8 17 mph 1013.5mb 42f 37f
11:00 10 16 mph 1013.6mb 42f 37f
10:54 9 13 mph 1013.7mb 42f 37f
10:48 9 14 mph 1013.7mb 42f 37f
10:42 7 11 mph 1013.7mb 43f 37f
10:36 10 16 mph 1013.7mb 43f 37f
10:30 9 14 mph 1013.7mb 43f 37f
10:24 8 15 mph 1013.8mb 43f 37f
10:18 7 14 mph 1013.9mb 43f 37f
10:12 7 16 mph 1013.8mb 43f 37f
10:06 15 18 mph 1013.8mb 43f 37f
9:54 9 17 mph 1013.9mb 43f 37f
9:48 10 16 mph 1013.9mb 43f 37f
9:42 14 20 mph 1013.8mb 43f 36f
9:36 10 20 mph 1013.8mb 43f 36f
9:30 13 16 mph 1013.7mb 43f 37f
9:24 10 18 mph 1013.7mb 43f 36f
9:18 13 17 mph 1013.7mb 43f 37f
9:12 10 16 mph 1013.6mb 43f 36f
9:06 11 17 mph 1013.5mb 43f 36f
9:00 8 15 mph 1013.5mb 43f 37f
8:54 8 14 mph 1013.4mb 43f 36f
8:48 11 16 mph 1013.3mb 44f 36f
8:42 13 16 mph 1013.3mb 44f 36f
8:36 7 14 mph 1013.2mb 44f 36f
8:30 7 14 mph 1013.2mb 44f 36f
8:24 9 15 mph 1013.2mb 44f 36f
8:18 5 13 mph 1013.1mb 44f 36f
8:12 9 14 mph 1013.1mb 44f 36f
8:06 8 13 mph 1013mb 44f 36f
8:00 9 16 mph 1013mb 44f 36f
7:54 9 15 mph 1012.9mb 44f 36f
7:48 10 17 mph 1012.8mb 44f 36f
7:42 8 13 mph 1012.8mb 44f 36f
7:36 9 15 mph 1012.7mb 44f 36f
7:30 9 15 mph 1012.6mb 44f 36f
7:24 9 14 mph 1012.6mb 44f 36f
7:18 8 16 mph 1012.4mb 44f 36f
7:12 11 16 mph 1012.4mb 44f 36f
7:06 9 15 mph 1012.3mb 44f 36f
7:00 9 15 mph 1012.2mb 44f 36f
6:54 10 16 mph 1012.2mb 45f 36f
6:48 8 13 mph 1012.1mb 45f 36f
6:42 7 11 mph 1012.1mb 45f 36f
6:36 6 15 mph 1012.1mb 45f 35f
6:30 6 13 mph 1012.1mb 45f 35f
6:24 8 13 mph 1011.9mb 45f 35f
6:18 10 14 mph 1011.9mb 45f 35f
6:12 11 16 mph 1011.7mb 45f 35f
6:06 6 11 mph 1011.7mb 45f 35f
6:00 8 10 mph 1011.6mb 45f 35f
5:54 7 11 mph 1011.5mb 45f 35f
5:48 8 13 mph 1011.5mb 45f 35f
5:42 7 13 mph 1011.4mb 45f 35f
5:36 8 13 mph 1011.3mb 45f 35f
5:30 10 17 mph 1011.3mb 45f 35f
5:24 10 16 mph 1011.2mb 45f 35f
5:18 11 17 mph 1011.3mb 45f 35f
5:12 10 15 mph 1011.2mb 45f 35f
5:06 10 16 mph 1011.3mb 45f 35f
5:00 11 16 mph 1011.3mb 45f 35f
4:54 9 14 mph 1011.3mb 45f 35f
4:48 9 14 mph 1011.3mb 45f 35f
4:42 6 10 mph 1011.4mb 45f 35f
4:36 8 13 mph 1011.3mb 45f 35f
4:30 9 14 mph 1011.2mb 45f 35f
4:24 8 13 mph 1011.2mb 45f 35f
4:18 8 14 mph 1011.1mb 45f 35f
4:12 7 11 mph 1011.1mb 45f 36f
4:06 7 14 mph 1011.1mb 45f 36f
4:00 8 17 mph 1011.1mb 45f 36f
3:54 8 15 mph 1011.1mb 45f 36f
3:48 9 14 mph 1011.1mb 45f 36f
3:42 10 14 mph 1011.2mb 45f 36f
3:36 7 13 mph 1011.2mb 45f 36f
3:30 9 14 mph 1011.2mb 45f 37f
3:24 10 14 mph 1011.2mb 45f 37f
3:18 7 13 mph 1011.3mb 45f 37f
3:12 6 13 mph 1011.3mb 45f 37f
3:06 8 17 mph 1011.2mb 44f 36f
3:00 9 14 mph 1011.2mb 44f 36f
2:54 9 14 mph 1011.3mb 44f 36f
2:48 8 13 mph 1011.2mb 44f 36f
2:42 8 13 mph 1011.3mb 44f 36f
2:36 10 14 mph 1011.3mb 44f 36f
2:30 8 14 mph 1011.2mb 44f 36f
2:24 7 13 mph 1011.1mb 44f 36f
2:18 8 14 mph 1011.1mb 44f 37f
2:12 9 15 mph 1011.1mb 44f 37f
2:06 7 15 mph 1011.1mb 44f 37f
2:00 11 15 mph 1011.2mb 44f 37f
1:54 10 16 mph 1011.2mb 44f 37f
1:48 7 13 mph 1011.2mb 44f 37f
1:42 5 9 mph 1011.3mb 44f 37f
1:36 5 13 mph 1011.2mb 44f 37f
1:30 10 14 mph 1011.2mb 44f 37f
1:24 8 11 mph 1011.2mb 44f 37f
1:18 7 13 mph 1011.2mb 44f 37f
1:12 8 14 mph 1011.1mb 44f 37f
1:06 8 13 mph 1011.2mb 44f 37f
1:00 9 14 mph 1011.2mb 43f 37f
12:54 8 11 mph 1011.1mb 43f 37f
12:48 11 14 mph 1011.1mb 43f 37f
12:42 8 13 mph 1011.1mb 43f 37f
12:36 8 14 mph 1011mb 43f 37f
12:30 7 14 mph 1011mb 43f 37f
12:24 9 14 mph 1011.1mb 43f 37f
12:18 7 11 mph 1011.1mb 43f 37f
12:12 8 16 mph 1011.1mb 43f 37f
12:06 11 15 mph 1011.1mb 43f 37f
12:00 8 13 mph 1011.2mb 43f 38f
Do 12/18 11:54 9 14 mph 1011.1mb 43f 38f
11:48 9 16 mph 1011.1mb 43f 38f
11:42 8 14 mph 1011.1mb 43f 38f
11:36 7 11 mph 1011.1mb 43f 38f
11:30 9 14 mph 1011.1mb 43f 38f
11:24 8 13 mph 1011.1mb 43f 38f
11:18 9 14 mph 1011.1mb 43f 38f
11:12 11 15 mph 1011.1mb 43f 38f
11:06 10 16 mph 1011.1mb 43f 37f
11:00 8 13 mph 1011.1mb 43f 37f
10:54 7 10 mph 1011.2mb 43f 37f
10:48 7 9 mph 1011.2mb 43f 37f
10:42 6 10 mph 1011.1mb 43f 37f
10:36 6 9 mph 1011.1mb 43f 37f
10:30 5 8 mph 1011.1mb 43f 37f
10:24 6 8 mph 1011.1mb 43f 37f
10:18 6 8 mph 1011.1mb 43f 37f
10:12 6 8 mph 1011.1mb 43f 37f
10:06 5 7 mph 1011mb 43f 37f
10:00 6 9 mph 1010.9mb 43f 37f
9:54 5 8 mph 1010.8mb 43f 37f
9:48 6 10 mph 1010.8mb 43f 36f
9:42 7 10 mph 1010.8mb 43f 36f
9:36 8 13 mph 1010.8mb 43f 36f
9:30 7 9 mph 1010.9mb 43f 36f
9:24 7 9 mph 1010.9mb 43f 37f
9:18 6 10 mph 1010.9mb 43f 37f
9:12 6 10 mph 1010.9mb 43f 37f
9:06 6 10 mph 1010.9mb 43f 37f
9:00 6 7 mph 1011mb 43f 37f
8:54 6 11 mph 1010.8mb 43f 37f
8:48 8 13 mph 1010.8mb 43f 37f
8:42 6 9 mph 1010.7mb 43f 37f
8:36 7 10 mph 1010.7mb 43f 37f
8:30 6 10 mph 1010.8mb 43f 38f
8:24 7 13 mph 1010.7mb 43f 38f
8:18 6 13 mph 1010.7mb 43f 38f
8:12 9 13 mph 1010.6mb 43f 38f
8:06 7 13 mph 1010.5mb 43f 38f
8:00 7 13 mph 1010.5mb 43f 38f
7:54 9 15 mph 1010.4mb 44f 38f
7:48 11 17 mph 1010.6mb 44f 38f
7:42 13 16 mph 1010.6mb 44f 38f
7:36 11 17 mph 1010.6mb 44f 38f
7:18 9 14 mph 1010.7mb 44f 39f
7:12 8 13 mph 1010.8mb 44f 39f
7:06 8 14 mph 1010.8mb 44f 39f
7:00 9 14 mph 1010.8mb 44f 39f
6:54 10 15 mph 1010.8mb 44f 39f
6:48 5 9 mph 1010.9mb 44f 39f
6:42 7 14 mph 1010.9mb 44f 39f
6:30 8 11 mph 1010.9mb 44f 39f
6:24 7 13 mph 1010.8mb 44f 39f
6:18 6 17 mph 1010.8mb 44f 39f
6:12 11 18 mph 1010.8mb 44f 39f
6:06 7 16 mph 1010.6mb 45f 39f
6:00 9 21 mph 1010.5mb 45f 39f
5:54 7 16 mph 1010.4mb 45f 40f
5:48 13 17 mph 1010.3mb 45f 40f
5:36 13 16 mph 1010.1mb 45f 40f
5:30 11 15 mph 1010.1mb 45f 40f
5:24 11 15 mph 1010.1mb 45f 40f
5:18 9 14 mph 1010.1mb 45f 40f
5:12 9 16 mph 1010mb 45f 40f
5:06 9 15 mph 1009.9mb 45f 40f
5:00 9 13 mph 1009.9mb 45f 40f
4:54 11 14 mph 1009.9mb 45f 40f
4:48 7 15 mph 1009.8mb 45f 40f
4:42 11 18 mph 1009.9mb 45f 41f
4:36 9 16 mph 1009.8mb 45f 41f
4:30 10 16 mph 1009.8mb 45f 41f
4:24 8 15 mph 1009.7mb 45f 41f
4:18 10 16 mph 1009.6mb 45f 41f
4:12 13 17 mph 1009.5mb 45f 41f
4:06 13 16 mph 1009.4mb 45f 42f
4:00 10 20 mph 1009.2mb 45f 42f
3:54 13 18 mph 1009.2mb 45f 42f
3:48 8 16 mph 1009.2mb 45f 42f
3:42 10 15 mph 1009.1mb 45f 42f
3:36 11 17 mph 1009.1mb 45f 42f
3:30 11 18 mph 1009mb 45f 42f
3:24 14 18 mph 1008.8mb 45f 42f
3:18 11 18 mph - - -
3:12 15 22 mph 1008.9mb 45f 42f
3:06 14 20 mph 1008.9mb 45f 42f
3:00 14 20 mph 1008.9mb 44f 42f
2:54 10 17 mph 1008.9mb 44f 42f
2:48 13 20 mph 1008.7mb 44f 42f
2:42 8 17 mph 1008.7mb 44f 42f
2:36 11 18 mph 1008.6mb 44f 42f
2:30 16 23 mph 1008.6mb 44f 42f
2:24 14 16 mph 1008.5mb 43f 42f
2:18 14 17 mph 1008.4mb 43f 42f
2:12 11 21 mph 1008.4mb 43f 42f
2:06 16 23 mph 1008.3mb 43f 42f
2:00 14 22 mph 1008.2mb 43f 42f
1:54 14 21 mph 1008.2mb 43f 42f
1:48 15 22 mph 1008.1mb 43f 42f
1:42 9 25 mph 1008.1mb 42f 42f
1:36 11 21 mph 1008mb 42f 42f
1:30 10 17 mph 1008mb 42f 42f
1:24 14 20 mph 1008mb 42f 42f
1:18 8 21 mph 1008.1mb 42f 42f
1:12 11 22 mph 1008.2mb 42f 42f
1:06 14 18 mph 1008.2mb 42f 42f
1:00 13 22 mph 1008.1mb 42f 42f
12:54 15 21 mph 1008.1mb 42f 42f
12:48 16 23 mph 1008.1mb 42f 42f
12:42 13 24 mph 1008.2mb 42f 42f
12:36 17 23 mph 1008.2mb 42f 42f
12:30 15 25 mph 1008.2mb 42f 42f
12:24 18 24 mph 1008.3mb 42f 42f
12:18 16 23 mph 1008.4mb 42f 41f
12:12 11 22 mph 1008.5mb 42f 42f
12:06 15 24 mph 1008.5mb 42f 42f
12:00 15 24 mph 1008.5mb 42f 42f
11:54 13 24 mph 1008.6mb 42f 42f
11:48 14 20 mph 1008.6mb 42f 42f
11:42 10 25 mph 1008.6mb 42f 42f
11:36 15 26 mph 1008.6mb 42f 42f
11:30 17 25 mph 1008.6mb 42f 42f
11:24 9 21 mph 1008.6mb 42f 42f
11:18 15 28 mph 1008.6mb 42f 42f
11:12 17 28 mph 1008.5mb 42f 42f
11:06 16 23 mph 1008.5mb 42f 42f
11:00 13 22 mph 1008.6mb 42f 43f
10:48 16 26 mph 1008.5mb 42f 42f
10:42 11 22 mph 1008.5mb 42f 42f
10:36 11 24 mph 1008.6mb 42f 42f
10:30 18 31 mph 1008.6mb 42f 42f
10:24 17 28 mph 1008.7mb 42f 42f
10:18 20 26 mph 1008.7mb 42f 42f
10:12 14 26 mph 1008.8mb 42f 42f
10:06 21 32 mph 1008.8mb 42f 41f
10:00 15 25 mph 1008.9mb 43f 42f
9:54 9 20 mph 1008.8mb 43f 42f
9:48 17 24 mph 1008.8mb 43f 41f
9:42 13 25 mph 1008.8mb 43f 41f
9:36 16 24 mph 1008.8mb 43f 41f
9:30 15 22 mph 1008.8mb 43f 41f
9:24 13 22 mph 1008.8mb 43f 40f
9:18 16 24 mph 1008.8mb 43f 40f
9:12 10 21 mph 1008.8mb 43f 40f
9:06 16 23 mph 1008.8mb 43f 40f
9:00 15 23 mph 1008.7mb 43f 40f
8:54 15 21 mph 1008.6mb 43f 40f
8:48 10 16 mph 1008.6mb 43f 40f
8:42 8 23 mph 1008.5mb 43f 39f
8:36 17 24 mph 1008.4mb 43f 39f
8:30 11 16 mph 1008.5mb 43f 38f
8:24 10 20 mph 1008.4mb 43f 38f
8:18 9 20 mph 1008.3mb 43f 38f
8:12 9 15 mph 1008.3mb 43f 38f
8:00 7 21 mph 1008.1mb 43f 38f
7:54 15 21 mph 1008mb 43f 37f
7:48 10 22 mph 1008mb 43f 38f
7:42 15 22 mph 1007.9mb 44f 38f
7:36 14 21 mph 1007.9mb 44f 37f
7:30 11 21 mph 1007.9mb 44f 37f
7:24 14 20 mph 1007.7mb 44f 37f
7:18 11 20 mph 1007.7mb 44f 37f
7:12 10 15 mph 1007.7mb 44f 37f
7:06 10 17 mph 1007.7mb 44f 37f
7:00 9 16 mph 1007.7mb 44f 37f
6:54 7 15 mph 1007.7mb 44f 37f
6:48 8 14 mph 1007.7mb - -
6:42 11 18 mph 1007.6mb 44f 37f
6:36 13 23 mph 1007.6mb 44f 37f
6:30 10 18 mph 1007.6mb 44f 37f
6:24 13 17 mph 1007.6mb 44f 38f
6:18 10 21 mph 1007.6mb 44f 38f
6:12 14 20 mph 1007.5mb 44f 38f
6:06 11 21 mph 1007.5mb 44f 38f
6:00 13 23 mph 1007.5mb 44f 38f
5:54 11 23 mph 1007.4mb 44f 38f
5:48 11 18 mph 1007.3mb 44f 38f
5:42 14 21 mph 1007.2mb 44f 39f
5:36 17 29 mph 1007.1mb 44f 39f
5:30 8 18 mph 1007.2mb 44f 39f
5:24 11 22 mph 1007mb 45f 40f
5:18 16 21 mph 1006.9mb 45f 40f
5:12 11 18 mph 1006.9mb 45f 40f
5:06 10 16 mph 1006.8mb 45f 40f
5:00 9 17 mph 1006.8mb 45f 40f
4:54 9 14 mph 1006.8mb 45f 40f
4:48 6 14 mph 1006.7mb 45f 40f
4:42 9 13 mph 1006.7mb 45f 40f
4:36 8 16 mph 1006.7mb 45f 40f
4:30 10 14 mph 1006.6mb 45f 40f
4:24 8 14 mph 1006.6mb 45f 40f
4:18 8 13 mph 1006.6mb 45f 40f
4:12 13 16 mph 1006.6mb 45f 40f
4:06 10 17 mph 1006.5mb 45f 40f
4:00 10 16 mph 1006.6mb 45f 40f
3:54 13 17 mph 1006.5mb 45f 40f
3:48 8 17 mph 1006.5mb 45f 40f
3:42 10 14 mph 1006.4mb 45f 40f
3:36 9 14 mph 1006.4mb 45f 40f
3:30 8 15 mph 1006.3mb 45f 40f
3:24 9 14 mph 1006.3mb 45f 40f
3:18 8 16 mph 1006.3mb 45f 40f
3:12 13 17 mph 1006.3mb 45f 40f
3:06 11 15 mph 1006.3mb 45f 40f
3:00 10 14 mph 1006.4mb 45f 40f
2:54 6 10 mph 1006.6mb 45f 40f
2:48 7 14 mph 1006.7mb 45f 40f
2:42 7 13 mph 1006.7mb 44f 40f
2:36 8 14 mph 1006.7mb 44f 40f
2:30 8 14 mph 1006.7mb 44f 40f
2:24 7 10 mph 1006.7mb 44f 40f
2:18 10 14 mph 1006.8mb 44f 39f
2:12 6 15 mph 1006.9mb 44f 39f
2:06 6 13 mph 1006.8mb 44f 39f
2:00 7 13 mph 1006.7mb 44f 39f
1:54 6 13 mph 1006.7mb 44f 39f
1:48 10 15 mph 1006.6mb 44f 39f
1:42 11 16 mph 1006.5mb 44f 39f
1:36 6 15 mph 1006.6mb 44f 39f
1:30 9 14 mph 1006.5mb 44f 39f
1:24 6 10 mph 1006.5mb 44f 39f
1:18 8 11 mph 1006.6mb 44f 39f
1:12 9 11 mph 1006.5mb 44f 39f
1:06 8 18 mph 1006.5mb 44f 39f
1:00 7 17 mph 1006.6mb 44f 39f
12:54 10 15 mph 1006.6mb 44f 39f
12:48 9 16 mph 1006.6mb 44f 40f
12:42 8 17 mph 1006.6mb 44f 40f
12:36 11 16 mph 1006.5mb 43f 40f
12:30 11 17 mph 1006.6mb 43f 40f
12:24 11 15 mph 1006.7mb 43f 40f
12:18 7 14 mph 1006.8mb 43f 40f
12:12 10 16 mph 1006.7mb 43f 41f
12:06 9 14 mph 1006.7mb 43f 41f
12:00 10 15 mph 1006.7mb 43f 41f
Mi 12/17 11:54 10 17 mph 1006.7mb 43f 41f
11:48 9 15 mph 1006.8mb 43f 41f
11:42 9 16 mph 1006.7mb 43f 42f
11:36 9 15 mph 1006.7mb 43f 42f
11:30 10 14 mph 1006.8mb 43f 42f
11:24 13 17 mph 1006.8mb 43f 42f
11:18 11 16 mph 1006.8mb 43f 42f
11:12 9 17 mph 1006.8mb 43f 42f
11:06 8 14 mph 1006.8mb 43f 42f
11:00 9 15 mph 1006.9mb 43f 42f
10:54 13 16 mph 1006.9mb 43f 42f
10:48 10 14 mph 1006.9mb 43f 42f
10:42 10 17 mph 1007mb 43f 42f
10:36 10 17 mph 1007mb 43f 42f
10:30 7 15 mph 1007.1mb 43f 43f
10:24 15 22 mph 1007.1mb 43f 43f
10:18 7 11 mph - - -
10:12 13 20 mph 1007.1mb 43f 43f
10:06 10 20 mph 1007.1mb 43f 43f
10:00 10 16 mph 1007.1mb 43f 43f
9:54 14 20 mph 1007.1mb 43f 43f
9:48 13 21 mph 1007mb 43f 43f
9:42 10 21 mph 1007mb 43f 44f
9:36 9 21 mph 1006.9mb 43f 44f
9:30 15 21 mph 1006.8mb 43f -
9:24 10 15 mph 1006.8mb 43f 44f
9:18 11 18 mph 1006.8mb 43f 44f
9:12 11 17 mph 1006.9mb 43f 44f
9:06 17 23 mph 1006.8mb 43f 44f
9:00 11 16 mph 1006.8mb 43f 44f
8:54 11 22 mph 1006.8mb 43f 44f
8:48 15 24 mph 1006.8mb 43f 45f
8:42 16 26 mph 1006.8mb 43f 45f
8:36 7 13 mph 1006.9mb 43f 45f
8:30 9 14 mph 1006.9mb 43f 45f
8:24 11 17 mph 1006.8mb 43f 45f
8:18 11 20 mph 1006.6mb - -
8:12 15 23 mph 1006.6mb 43f 45f
8:06 11 22 mph 1006.6mb 43f 45f
7:54 14 20 mph 1006.7mb 43f 46f
7:48 13 16 mph 1006.7mb 43f 46f
7:42 10 24 mph 1006.7mb 43f 46f
7:36 14 21 mph 1006.6mb 43f 46f
7:30 11 21 mph 1006.6mb 43f 46f
7:24 13 20 mph 1006.7mb 43f 46f
7:18 11 17 mph 1006.6mb 43f 47f
7:12 14 23 mph 1006.7mb 43f 47f
7:06 11 21 mph 1006.6mb 43f 47f
7:00 9 18 mph 1006.7mb 43f 47f
6:54 10 15 mph 1006.8mb 44f 47f
6:48 10 16 mph 1006.9mb 44f 47f
6:42 10 17 mph 1006.9mb 44f 47f
6:30 9 16 mph 1006.9mb 44f 47f
6:24 7 14 mph 1006.9mb 44f 47f
6:18 10 16 mph 1006.9mb 44f 48f
6:12 8 13 mph 1006.9mb 44f 48f
6:06 10 15 mph 1006.8mb 44f 48f
6:00 7 11 mph 1006.7mb 44f 48f
5:54 9 14 mph 1006.7mb 44f 48f
5:48 6 10 mph 1006.8mb 44f 48f
5:42 7 13 mph 1006.7mb 44f 48f
5:36 9 11 mph 1006.6mb 44f 48f
5:30 8 14 mph 1006.6mb 44f 48f
5:24 8 16 mph 1006.6mb 44f 48f
5:18 8 14 mph 1006.5mb 44f 48f
5:12 9 14 mph 1006.4mb 44f 48f
5:06 8 18 mph 1006.3mb 44f 48f
5:00 9 14 mph 1006.4mb 44f 48f
4:54 7 16 mph 1006.3mb 44f 48f
4:48 8 13 mph 1006.2mb 44f 48f
4:42 9 14 mph 1006.1mb 44f 48f
4:30 8 13 mph 1006.1mb 44f 49f
4:24 5 13 mph 1006.1mb 44f 49f
4:18 7 10 mph 1006.1mb 44f 49f
4:12 8 15 mph 1006mb 44f 49f
4:06 9 15 mph 1006mb 44f 49f
4:00 10 16 mph 1005.9mb 44f 49f
3:54 8 13 mph 1005.9mb 44f 49f
3:48 8 14 mph - - -
3:42 10 17 mph 1005.7mb 44f 50f
3:36 13 18 mph 1005.6mb 44f 50f
3:30 11 16 mph 1005.4mb 44f 50f
3:24 9 17 mph 1005.4mb 44f 50f
3:06 8 17 mph 1005.3mb 44f 50f
3:00 10 16 mph 1005.3mb 44f 50f
2:54 11 20 mph 1005.2mb 44f 50f
2:48 10 15 mph 1005.2mb 44f 50f
2:42 9 17 mph 1005.1mb 44f 50f
2:36 9 20 mph 1005.2mb 44f 49f
2:30 14 20 mph 1005.2mb 44f 49f
2:24 10 17 mph 1005.2mb 44f 49f
2:18 14 20 mph 1005.2mb 44f 49f
2:12 11 17 mph 1005.2mb 44f 50f
2:06 15 22 mph 1005.1mb 44f 49f
2:00 11 20 mph 1005.1mb 44f 50f
1:54 10 24 mph 1005mb 44f 50f
1:48 15 25 mph 1004.9mb 43f 50f
1:42 14 17 mph 1004.8mb 43f 51f
1:36 13 18 mph 1004.7mb 43f 51f
1:30 14 22 mph 1004.6mb 43f 51f
1:24 13 16 mph 1004.6mb 43f 51f
1:18 14 20 mph 1004.6mb 43f 50f
1:12 7 13 mph 1004.6mb 43f 51f
1:06 8 11 mph 1004.6mb 43f 50f
12:54 13 16 mph 1004.6mb 42f 49f
12:48 11 16 mph 1004.7mb 42f 49f
12:42 13 20 mph 1004.8mb 42f 48f
12:36 14 20 mph 1004.8mb 42f 48f
12:30 9 14 mph 1004.9mb 42f 48f
12:24 15 18 mph 1005mb 42f 47f
12:18 11 16 mph 1005.1mb 42f 47f
12:12 11 21 mph 1005.2mb 42f -
12:06 11 15 mph 1005.3mb 42f -
12:00 10 16 mph 1005.4mb 42f -
11:54 11 16 mph 1005.4mb 42f 47f
11:48 8 15 mph 1005.4mb 42f 47f
11:42 7 11 mph 1005.5mb 42f 47f
11:36 8 13 mph 1005.5mb 42f 46f
11:24 9 14 mph 1005.6mb 42f 46f
11:18 8 15 mph 1005.6mb 42f 46f
11:12 9 15 mph 1005.7mb 42f 46f
11:06 10 14 mph 1005.7mb 42f 46f
11:00 6 10 mph 1005.8mb 42f 45f
10:54 7 13 mph 1005.9mb 42f 45f
10:48 8 10 mph 1005.9mb 42f 45f
10:42 11 15 mph 1006mb 42f 45f
10:36 9 16 mph 1006.1mb 42f 45f
10:30 9 17 mph 1006.2mb 42f 45f
10:18 9 13 mph 1006.3mb 42f 44f
10:06 5 9 mph 1006.5mb 42f 44f
10:00 6 8 mph 1006.5mb 42f 44f
9:54 7 13 mph 1006.5mb 42f 44f
9:48 10 14 mph 1006.5mb 42f 43f
9:42 11 15 mph 1006.5mb 42f 43f
9:36 8 11 mph 1006.5mb 42f 43f
9:30 7 11 mph 1006.5mb 42f 43f
9:24 8 11 mph 1006.5mb 42f 43f
9:18 8 13 mph 1006.5mb 42f 43f
9:12 7 11 mph 1006.5mb 42f 43f
9:06 6 14 mph 1006.4mb 42f 42f
9:00 9 14 mph 1006.4mb 42f 42f
8:42 10 14 mph 1006.4mb 42f 42f
8:36 13 15 mph 1006.4mb 42f 42f
8:30 8 14 mph 1006.3mb 42f 42f
8:24 8 16 mph 1006.3mb 42f 42f
8:18 10 16 mph 1006.3mb 42f 42f
8:12 10 15 mph 1006.3mb 42f 41f
8:06 9 16 mph 1006.3mb 42f 41f
8:00 8 16 mph 1006.5mb 42f 41f
7:54 9 16 mph 1006.4mb 43f 41f
7:48 8 14 mph 1006.4mb 43f 41f
7:42 10 14 mph 1006.3mb 43f 41f
7:36 9 14 mph 1006.4mb 43f 41f
7:30 10 13 mph 1006.4mb 43f 41f
7:24 7 9 mph 1006.3mb 43f 41f
7:18 7 10 mph 1006.3mb 43f 41f
7:06 6 8 mph 1006.4mb 43f 42f
7:00 2 10 mph 1006.4mb 43f 42f
6:54 8 11 mph 1006.3mb 43f 42f
6:48 9 13 mph 1006.2mb 43f 42f
6:42 7 10 mph 1006.2mb 43f 42f
6:36 5 10 mph 1006.2mb 43f 42f
6:30 7 9 mph 1006.3mb 44f -
6:24 5 6 mph 1006.3mb 44f -
6:18 6 7 mph 1006.4mb 44f -
6:12 7 9 mph 1006.6mb 44f -
6:06 6 8 mph 1006.6mb 44f 42f
6:00 6 9 mph 1006.5mb 44f 42f
5:54 6 8 mph 1006.5mb 44f 42f
5:48 7 9 mph 1006.4mb 44f 42f
5:42 6 10 mph 1006.5mb 44f 42f
5:36 6 9 mph 1006.5mb 44f 42f
5:30 8 11 mph 1006.5mb 44f 42f
5:24 9 13 mph 1006.5mb 44f 42f
5:18 9 10 mph 1006.6mb 44f 42f
5:12 7 9 mph 1006.6mb 44f 41f
5:06 7 9 mph 1006.9mb 44f 41f
5:00 7 11 mph 1006.9mb 44f 41f
4:48 6 8 mph 1006.9mb 44f 41f
4:42 6 7 mph 1006.8mb 44f 41f
4:36 3 7 mph 1006.8mb 44f 41f
4:30 6 8 mph 1006.9mb 44f 42f
4:24 7 10 mph 1007mb 44f 42f
4:18 6 10 mph 1007mb 44f 42f
4:12 8 13 mph 1006.9mb 44f 42f
4:06 5 16 mph 1007mb 44f 42f
4:00 10 14 mph 1006.9mb 44f 42f
3:54 7 10 mph 1007.4mb 44f 42f
3:48 9 11 mph 1007.6mb 44f 42f
3:42 7 9 mph 1007.9mb 44f 42f
3:36 8 10 mph 1007.8mb 44f 42f
3:30 6 10 mph 1007.6mb 44f 42f
3:18 8 11 mph 1008mb 44f 42f
3:12 8 11 mph 1008.3mb 44f 42f
3:06 8 13 mph 1008.4mb 44f 42f
3:00 9 11 mph 1008.4mb 44f 42f
2:54 9 14 mph 1008.3mb 44f 42f
2:48 10 13 mph 1008.4mb 44f 42f
2:42 9 11 mph 1008.5mb 44f 42f
2:36 9 13 mph 1008.6mb 44f 42f
2:30 7 8 mph 1008.9mb 44f 42f
2:24 6 8 mph 1009.1mb 44f 42f
2:18 5 7 mph 1009.2mb 44f 42f
2:12 3 8 mph 1009.2mb 44f 42f
2:06 6 7 mph 1009.2mb 44f 42f
2:00 7 8 mph 1009.1mb 44f 42f
1:54 3 8 mph 1009.1mb 44f 42f
1:48 6 8 mph 1009.3mb 44f 42f
1:42 7 11 mph 1009.4mb 44f 42f
1:36 8 10 mph 1009.4mb 44f 42f
1:30 7 9 mph 1009.5mb 44f 42f
1:24 6 9 mph 1009.9mb 44f 42f
1:18 7 8 mph 1010.1mb 44f 42f
1:12 7 10 mph 1010.3mb 44f 42f
1:06 8 11 mph 1010.3mb 44f 42f
1:00 9 11 mph 1010.5mb 44f 42f
12:54 8 13 mph 1010.7mb 44f 42f
12:48 9 11 mph 1010.7mb 44f 43f
12:42 8 10 mph 1010.9mb 44f 42f
12:36 8 9 mph 1011mb 44f 42f
12:30 7 8 mph 1011.2mb 44f 42f
12:24 6 7 mph 1011.3mb 44f 42f
12:18 5 6 mph 1011.3mb 44f 43f
12:12 5 6 mph 1011.3mb 43f 43f
12:06 3 5 mph 1011.4mb 43f 43f
12:00 5 7 mph 1011.5mb 43f 43f
Di 12/16 11:54 6 8 mph 1011.5mb 43f 43f
11:48 7 8 mph 1011.5mb 43f 43f
11:42 6 8 mph 1011.6mb 42f 42f
11:36 5 8 mph 1011.7mb 42f 42f
11:30 5 11 mph 1011.6mb 42f 43f
11:24 8 10 mph 1011.8mb 42f 42f
11:18 3 10 mph 1012.2mb 42f 43f
11:12 6 7 mph 1012.2mb 42f 42f
11:06 6 9 mph 1012mb 42f 42f
11:00 6 9 mph 1011.7mb 42f 42f
10:54 6 7 mph 1012mb 42f 42f
10:48 5 6 mph 1012.3mb 42f 42f
10:42 6 7 mph 1012.2mb 42f 42f
10:36 6 8 mph 1012.4mb 42f 42f
10:30 6 7 mph 1012.6mb 42f 42f
10:24 5 6 mph 1012.8mb 42f 42f
10:18 3 7 mph 1013mb 42f 42f
10:12 5 6 mph 1013mb 42f 42f
10:06 5 6 mph 1013.1mb 42f 42f
10:00 5 6 mph 1013.2mb 42f 42f
9:54 5 7 mph 1013.2mb 42f 42f
9:48 6 7 mph 1013.2mb 42f 42f
9:42 6 7 mph 1013.3mb 42f 42f
9:36 6 7 mph 1013.3mb 42f 42f
9:30 6 7 mph 1013.4mb - 42f
9:24 5 7 mph 1013.6mb - 42f
9:18 6 7 mph - - -
9:12 5 6 mph 1013.8mb 42f 42f
9:06 3 6 mph 1013.9mb 42f 42f
9:00 6 8 mph 1013.9mb 42f 42f
8:54 6 7 mph 1013.9mb 42f 42f
8:48 5 6 mph 1014mb 42f 42f
8:42 3 6 mph 1014.1mb 42f 42f
8:36 3 5 mph 1014.2mb 42f 42f
8:30 2 3 mph 1014.4mb 42f 42f
8:24 2 3 mph 1014.4mb 42f 42f
8:18 2 3 mph 1014.4mb 42f 42f
8:12 2 5 mph 1014.4mb 42f 42f
8:06 3 5 mph 1014.5mb 42f 42f
8:00 3 5 mph 1014.5mb 42f 42f
7:54 3 5 mph 1014.5mb 42f 42f
7:48 3
mph
1014.6mb 42f 41f
7:42 2 3 mph 1014.7mb 42f 41f
7:36 2 3 mph 1014.7mb 42f 41f
7:30 5 6 mph 1014.5mb 42f 41f
7:24 6 7 mph 1014.2mb 42f 41f
7:18 6 7 mph 1014.3mb 42f 41f
7:12 6
mph
1014.7mb 43f 42f
7:06 5
mph
1014.9mb 43f 42f
7:00 2 3 mph 1015.2mb 43f 42f
6:54 3 5 mph 1015.2mb 43f 42f
6:48 2 3 mph 1015.3mb 43f 42f
6:42 1 5 mph 1015.3mb 43f 42f
6:36 1 5 mph 1015.3mb 43f 42f
6:30 2 3 mph 1015.3mb 43f 42f
6:24 2 3 mph 1015.3mb 43f 42f
6:18 3 5 mph 1015.4mb 43f 42f
6:12 3
mph
1015.5mb 43f 41f
6:06 3 6 mph 1015.6mb 43f 41f
6:00 5 6 mph 1015.6mb 43f 41f
5:54 5 6 mph 1015.6mb 43f 41f
5:48 5 6 mph 1015.7mb 43f 41f
5:42 5
mph
1015.8mb 43f 41f
5:36 3 5 mph 1016.1mb 43f 41f
5:30 5
mph
1016.2mb 43f 41f
5:24 3 5 mph 1016.3mb 43f 41f